createdAt,value
2022-08-11T00:01:52.158Z,102102.69
2022-08-11T00:04:20.294Z,102099.00
2022-08-11T00:06:48.520Z,102107.06
2022-08-11T00:09:22.254Z,102098.16
2022-08-11T00:11:52.437Z,102109.75
2022-08-11T00:14:22.095Z,102097.31
2022-08-11T00:17:01.324Z,102108.06
2022-08-11T00:20:13.672Z,102102.69
2022-08-11T00:22:21.838Z,102102.69
2022-08-11T00:24:54.856Z,102095.66
2022-08-11T00:27:37.409Z,102096.59
2022-08-11T00:30:06.019Z,102098.31
2022-08-11T00:32:33.796Z,102104.66
2022-08-11T00:35:51.480Z,102101.97
2022-08-11T00:37:50.856Z,102099.28
2022-08-11T00:40:32.333Z,102099.28
2022-08-11T00:43:23.003Z,102097.59
2022-08-11T00:46:14.525Z,102101.28
2022-08-11T00:49:00.726Z,102100.59
2022-08-11T00:52:04.953Z,102108.63
2022-08-11T00:54:33.268Z,102103.28
2022-08-11T00:57:51.371Z,102110.59
2022-08-11T01:00:23.411Z,102106.09
2022-08-11T01:03:13.567Z,102108.63
2022-08-11T01:06:07.766Z,102101.56
2022-08-11T01:08:55.827Z,102101.72
2022-08-11T01:11:40.079Z,102105.25
2022-08-11T01:14:33.902Z,102098.16
2022-08-11T01:17:35.979Z,102108.88
2022-08-11T01:20:47.481Z,102101.84
2022-08-11T01:23:39.062Z,102105.38
2022-08-11T01:26:29.630Z,102101.84
2022-08-11T01:29:24.154Z,102114.56
2022-08-11T01:32:08.373Z,102112.56
2022-08-11T01:35:00.076Z,102115.25
2022-08-11T01:37:52.878Z,102110.88
2022-08-11T01:40:23.394Z,102103.84
2022-08-11T01:44:03.694Z,102102.16
2022-08-11T01:46:48.023Z,102103.97
2022-08-11T01:50:07.712Z,102105.81
2022-08-11T01:52:34.806Z,102098.78
2022-08-11T01:55:19.838Z,102104.13
2022-08-11T01:58:01.190Z,102103.97
2022-08-11T02:00:30.688Z,102102.16
2022-08-11T02:03:00.419Z,102100.47
2022-08-11T02:05:48.321Z,102107.50
2022-08-11T02:08:50.592Z,102111.19
2022-08-11T02:11:34.416Z,102113.16
2022-08-11T02:14:12.290Z,102107.78
2022-08-11T02:16:57.543Z,102108.81
2022-08-11T02:20:19.988Z,102111.78
2022-08-11T02:23:13.419Z,102118.81
2022-08-11T02:26:24.093Z,102111.63
2022-08-11T02:29:10.611Z,102116.28
2022-08-11T02:32:15.425Z,102105.56
2022-08-11T02:34:59.445Z,102115.28
2022-08-11T02:37:33.072Z,102110.78
2022-08-11T02:40:10.899Z,102101.03
2022-08-11T02:42:46.606Z,102095.69
2022-08-11T02:45:33.124Z,102099.34
2022-08-11T02:48:54.057Z,102095.00
2022-08-11T02:51:29.744Z,102097.69
2022-08-11T02:54:02.594Z,102086.94
2022-08-11T02:56:53.199Z,102099.34
2022-08-11T02:59:50.038Z,102092.31
2022-08-11T03:02:53.859Z,102095.97
2022-08-11T03:05:28.027Z,102095.13
2022-08-11T03:08:12.816Z,102103.03
2022-08-11T03:11:14.837Z,102101.47
2022-08-11T03:14:10.922Z,102104.16
2022-08-11T03:16:57.553Z,102103.31
2022-08-11T03:19:45.396Z,102098.94
2022-08-11T03:22:31.011Z,102106.19
2022-08-11T03:25:12.994Z,102102.78
2022-08-11T03:27:49.156Z,102099.94
2022-08-11T03:30:27.744Z,102100.94
2022-08-11T03:33:21.074Z,102102.63
2022-08-11T03:36:31.831Z,102105.56
2022-08-11T03:39:03.501Z,102096.56
2022-08-11T03:42:04.489Z,102092.91
2022-08-11T03:44:38.032Z,102089.50
2022-08-11T03:47:25.781Z,102095.72
2022-08-11T03:50:24.855Z,102094.84
2022-08-11T03:53:10.606Z,102098.53
2022-08-11T03:56:09.178Z,102096.84
2022-08-11T03:59:00.470Z,102100.53
2022-08-11T04:01:54.967Z,102106.72
2022-08-11T04:04:50.655Z,102101.38
2022-08-11T04:07:50.344Z,102104.34
2022-08-11T04:10:38.011Z,102107.88
2022-08-11T04:13:35.791Z,102102.50
2022-08-11T04:16:23.988Z,102103.34
2022-08-11T04:19:21.358Z,102101.66
2022-08-11T04:21:58.381Z,102094.63
2022-08-11T04:24:37.853Z,102095.75
2022-08-11T04:27:37.263Z,102100.09
2022-08-11T04:30:17.979Z,102109.88
2022-08-11T04:32:59.854Z,102105.47
2022-08-11T04:35:51.425Z,102101.09
2022-08-11T04:38:46.398Z,102101.09
2022-08-11T04:42:05.158Z,102101.09
2022-08-11T04:45:00.102Z,102104.78
2022-08-11T04:48:01.803Z,102107.47
2022-08-11T04:51:16.961Z,102113.81
2022-08-11T04:54:28.445Z,102110.44
2022-08-11T04:57:20.135Z,102106.75
2022-08-11T05:00:29.720Z,102108.75
2022-08-11T05:03:02.534Z,102110.44
2022-08-11T05:05:54.676Z,102112.13
2022-08-11T05:09:01.803Z,102104.22
2022-08-11T05:11:40.409Z,102104.09
2022-08-11T05:14:31.484Z,102108.44
2022-08-11T05:17:28.240Z,102107.03
2022-08-11T05:20:13.329Z,102113.28
2022-08-11T05:23:09.096Z,102110.16
2022-08-11T05:26:45.531Z,102109.91
2022-08-11T05:29:19.471Z,102111.44
2022-08-11T05:32:10.745Z,102116.94
2022-08-11T05:34:54.886Z,102123.59
2022-08-11T05:37:30.689Z,102117.50
2022-08-11T05:40:30.631Z,102124.84
2022-08-11T05:43:18.648Z,102136.53
2022-08-11T05:46:07.048Z,102129.66
2022-08-11T05:48:54.988Z,102125.97
2022-08-11T05:51:54.699Z,102125.97
2022-08-11T05:54:46.045Z,102127.38
2022-08-11T05:57:48.973Z,102126.38
2022-08-11T06:00:10.555Z,102118.34
2022-08-11T06:02:49.559Z,102117.50
2022-08-11T06:05:16.738Z,102123.56
2022-08-11T06:07:49.594Z,102120.78
2022-08-11T06:10:30.147Z,102131.19
2022-08-11T06:12:58.497Z,102119.47
2022-08-11T06:15:26.098Z,102121.31
2022-08-11T06:17:54.148Z,102114.97
2022-08-11T06:20:22.090Z,102111.28
2022-08-11T06:22:56.333Z,102118.34
2022-08-11T06:25:23.999Z,102111.19
2022-08-11T06:27:56.555Z,102116.38
2022-08-11T06:30:35.473Z,102110.88
2022-08-11T06:33:04.433Z,102115.94
2022-08-11T06:35:53.172Z,102109.66
2022-08-11T06:38:58.826Z,102117.38
2022-08-11T06:41:31.988Z,102113.56
2022-08-11T06:44:13.787Z,102115.13
2022-08-11T06:46:46.836Z,102120.34
2022-08-11T06:49:34.030Z,102112.16
2022-08-11T06:52:04.569Z,102117.25
2022-08-11T06:54:34.707Z,102116.94
2022-08-11T06:57:35.952Z,102118.63
2022-08-11T07:00:21.788Z,102111.28
2022-08-11T07:03:08.453Z,102117.50
2022-08-11T07:05:37.843Z,102127.94
2022-08-11T07:08:36.070Z,102118.91
2022-08-11T07:11:27.580Z,102122.28
2022-08-11T07:14:14.067Z,102123.00
2022-08-11T07:16:42.500Z,102118.47
2022-08-11T07:19:27.939Z,102113.81
2022-08-11T07:22:14.603Z,102113.50
2022-08-11T07:25:03.589Z,102119.72
2022-08-11T07:27:55.429Z,102112.38
2022-08-11T07:30:22.432Z,102115.91
2022-08-11T07:32:55.924Z,102119.13
2022-08-11T07:35:30.253Z,102120.81
2022-08-11T07:38:07.283Z,102115.34
2022-08-11T07:40:35.835Z,102125.91
2022-08-11T07:43:03.871Z,102120.41
2022-08-11T07:45:49.251Z,102119.41
2022-08-11T07:48:35.975Z,102117.72
2022-08-11T07:51:21.517Z,102113.03
2022-08-11T07:53:58.317Z,102128.13
2022-08-11T07:56:54.137Z,102131.53
2022-08-11T08:00:00.379Z,102125.31
2022-08-11T08:02:47.884Z,102133.22
2022-08-11T08:05:33.723Z,102129.53
2022-08-11T08:08:19.292Z,102136.59
2022-08-11T08:11:04.602Z,102129.22
2022-08-11T08:13:51.317Z,102121.06
2022-08-11T08:16:36.587Z,102128.13
2022-08-11T08:19:03.388Z,102122.59
2022-08-11T08:21:30.245Z,102113.72
2022-08-11T08:23:58.779Z,102120.59
2022-08-11T08:26:51.546Z,102116.94
2022-08-11T08:29:38.479Z,102123.16
2022-08-11T08:32:05.731Z,102120.59
2022-08-11T08:34:33.873Z,102123.72
2022-08-11T08:37:01.506Z,102125.25
2022-08-11T08:39:28.348Z,102129.50
2022-08-11T08:41:56.869Z,102125.84
2022-08-11T08:44:38.210Z,102123.84
2022-08-11T08:47:06.784Z,102125.53
2022-08-11T08:49:40.638Z,102123.56
2022-08-11T08:52:21.728Z,102121.56
2022-08-11T08:54:57.468Z,102122.41
2022-08-11T08:57:28.107Z,102128.63
2022-08-11T08:59:55.214Z,102123.25
2022-08-11T09:02:34.584Z,102130.03
2022-08-11T09:05:03.981Z,102122.94
2022-08-11T09:07:39.950Z,102121.81
2022-08-11T09:10:07.633Z,102120.16
2022-08-11T09:12:38.521Z,102122.16
2022-08-11T09:15:08.214Z,102128.03
2022-08-11T09:17:39.773Z,102114.63
2022-08-11T09:20:15.468Z,102110.25
2022-08-11T09:24:02.069Z,102112.22
2022-08-11T09:26:14.933Z,102116.19
2022-08-11T09:28:45.920Z,102100.09
2022-08-11T09:31:13.728Z,102103.78
2022-08-11T09:33:42.703Z,102100.25
2022-08-11T09:36:28.384Z,102090.38
2022-08-11T09:39:17.144Z,102090.38
2022-08-11T09:42:01.131Z,102088.53
2022-08-11T09:44:49.474Z,102089.06
2022-08-11T09:47:17.614Z,102089.97
2022-08-11T09:49:49.123Z,102081.75
2022-08-11T09:52:16.211Z,102085.94
2022-08-11T09:54:43.435Z,102078.59
2022-08-11T09:57:33.620Z,102080.16
2022-08-11T10:00:12.859Z,102081.97
2022-08-11T10:02:46.544Z,102082.50
2022-08-11T10:05:35.335Z,102077.16
2022-08-11T10:08:02.529Z,102073.63
2022-08-11T10:10:29.982Z,102069.78
2022-08-11T10:13:00.232Z,102074.31
2022-08-11T10:15:40.035Z,102066.09
2022-08-11T10:18:42.496Z,102065.41
2022-08-11T10:21:15.793Z,102059.91
2022-08-11T10:24:05.888Z,102058.06
2022-08-11T10:26:53.643Z,102056.09
2022-08-11T10:29:44.537Z,102063.41
2022-08-11T10:32:49.356Z,102057.09
2022-08-11T10:35:28.852Z,102050.00
2022-08-11T10:38:07.699Z,102051.72
2022-08-11T10:40:38.486Z,102053.41
2022-08-11T10:43:10.710Z,102048.88
2022-08-11T10:45:57.505Z,102043.50
2022-08-11T10:48:26.091Z,102039.81
2022-08-11T10:51:12.175Z,102040.66
2022-08-11T10:54:03.819Z,102044.19
2022-08-11T10:56:52.872Z,102036.16
2022-08-11T10:59:19.935Z,102038.81
2022-08-11T11:01:47.177Z,102035.31
2022-08-11T11:04:16.630Z,102027.94
2022-08-11T11:06:54.692Z,102027.94
2022-08-11T11:09:51.506Z,102025.56
2022-08-11T11:12:44.377Z,102026.25
2022-08-11T11:15:30.409Z,102028.94
2022-08-11T11:18:07.032Z,102036.16
2022-08-11T11:20:49.946Z,102020.03
2022-08-11T11:23:54.994Z,102014.84
2022-08-11T11:26:39.817Z,102011.84
2022-08-11T11:29:25.590Z,102015.34
2022-08-11T11:32:00.931Z,102005.47
2022-08-11T11:34:53.537Z,102007.31
2022-08-11T11:37:23.110Z,102004.50
2022-08-11T11:39:50.025Z,102007.03
2022-08-11T11:42:17.418Z,102007.03
2022-08-11T11:44:45.296Z,102003.34
2022-08-11T11:47:12.614Z,102005.03
2022-08-11T11:49:44.330Z,102008.38
2022-08-11T11:52:19.247Z,102001.19
2022-08-11T11:54:51.040Z,101998.50
2022-08-11T11:57:37.796Z,101987.75
2022-08-11T12:00:33.076Z,101991.31
2022-08-11T12:03:03.346Z,101985.94
2022-08-11T12:05:32.167Z,101980.41
2022-08-11T12:08:17.379Z,101978.56
2022-08-11T12:10:50.988Z,101975.06
2022-08-11T12:13:36.654Z,101974.06
2022-08-11T12:16:32.871Z,101973.06
2022-08-11T12:18:56.709Z,101963.16
2022-08-11T12:21:24.108Z,101966.69
2022-08-11T12:24:09.825Z,101966.69
2022-08-11T12:27:15.966Z,101969.38
2022-08-11T12:29:44.473Z,101963.16
2022-08-11T12:32:11.526Z,101964.00
2022-08-11T12:34:38.367Z,101963.00
2022-08-11T12:37:13.637Z,101954.94
2022-08-11T12:40:15.601Z,101960.31
2022-08-11T12:43:21.546Z,101960.31
2022-08-11T12:45:54.652Z,101952.53
2022-08-11T12:49:00.784Z,101948.06
2022-08-11T12:52:12.292Z,101949.56
2022-08-11T12:54:50.847Z,101937.16
2022-08-11T12:57:49.591Z,101935.16
2022-08-11T13:00:36.669Z,101934.31
2022-08-11T13:03:24.773Z,101931.50
2022-08-11T13:05:54.869Z,101930.66
2022-08-11T13:08:25.079Z,101927.81
2022-08-11T13:11:12.154Z,101933.19
2022-08-11T13:13:55.968Z,101924.28
2022-08-11T13:16:31.986Z,101917.06
2022-08-11T13:19:01.537Z,101914.38
2022-08-11T13:21:28.865Z,101912.56
2022-08-11T13:24:01.784Z,101916.75
2022-08-11T13:26:43.344Z,101906.84
2022-08-11T13:29:17.390Z,101907.03
2022-08-11T13:31:45.398Z,101902.31
2022-08-11T13:34:12.557Z,101896.13
2022-08-11T13:36:39.489Z,101903.16
2022-08-11T13:39:06.323Z,101902.88
2022-08-11T13:41:44.212Z,101904.56
2022-08-11T13:44:15.639Z,101897.38
2022-08-11T13:46:45.504Z,101901.75
2022-08-11T13:49:16.619Z,101891.69
2022-08-11T13:51:43.988Z,101887.31
2022-08-11T13:54:13.304Z,101880.25
2022-08-11T13:56:43.397Z,101881.94
2022-08-11T13:59:10.577Z,101880.09
2022-08-11T14:02:03.906Z,101878.25
2022-08-11T14:04:34.594Z,101876.56
2022-08-11T14:07:06.746Z,101883.63
2022-08-11T14:09:37.726Z,101890.69
2022-08-11T14:12:29.035Z,101881.66
2022-08-11T14:15:22.818Z,101879.25
2022-08-11T14:17:54.375Z,101875.44
2022-08-11T14:20:38.090Z,101872.88
2022-08-11T14:23:07.426Z,101858.50
2022-08-11T14:25:59.537Z,101873.59
2022-08-11T14:28:31.224Z,101870.06
2022-08-11T14:31:03.832Z,101858.31
2022-08-11T14:33:38.146Z,101857.31
2022-08-11T14:36:20.507Z,101859.16
2022-08-11T14:38:48.285Z,101852.78
2022-08-11T14:41:34.041Z,101852.78
2022-08-11T14:44:19.415Z,101850.94
2022-08-11T14:47:05.024Z,101851.09
2022-08-11T14:50:09.312Z,101861.69
2022-08-11T14:52:39.645Z,101854.47
2022-08-11T14:55:26.348Z,101850.78
2022-08-11T14:57:54.810Z,101843.72
2022-08-11T15:00:23.740Z,101852.47
2022-08-11T15:03:09.379Z,101840.03
2022-08-11T15:05:39.321Z,101836.50
2022-08-11T15:08:06.999Z,101832.81
2022-08-11T15:10:34.090Z,101836.34
2022-08-11T15:13:01.243Z,101830.97
2022-08-11T15:15:48.276Z,101838.06
2022-08-11T15:18:18.337Z,101836.34
2022-08-11T15:21:05.534Z,101829.00
2022-08-11T15:23:50.929Z,101828.66
2022-08-11T15:26:42.555Z,101823.84
2022-08-11T15:29:28.652Z,101819.31
2022-08-11T15:32:14.507Z,101824.50
2022-08-11T15:35:03.698Z,101820.66
2022-08-11T15:37:32.189Z,101819.81
2022-08-11T15:40:33.430Z,101818.66
2022-08-11T15:43:39.703Z,101820.97
2022-08-11T15:46:17.190Z,101825.72
2022-08-11T15:48:49.246Z,101822.69
2022-08-11T15:51:32.989Z,101813.97
2022-08-11T15:54:08.927Z,101814.63
2022-08-11T15:56:36.595Z,101815.63
2022-08-11T15:59:42.197Z,101816.31
2022-08-11T16:02:32.641Z,101807.59
2022-08-11T16:05:02.853Z,101804.75
2022-08-11T16:07:36.911Z,101803.91
2022-08-11T16:10:19.486Z,101807.13
2022-08-11T16:13:06.276Z,101798.72
2022-08-11T16:15:54.470Z,101797.72
2022-08-11T16:18:23.237Z,101803.78
2022-08-11T16:20:52.221Z,101797.53
2022-08-11T16:23:19.940Z,101792.88
2022-08-11T16:27:04.997Z,101791.88
2022-08-11T16:28:34.613Z,101790.69
2022-08-11T16:31:01.822Z,101787.16
2022-08-11T16:33:49.797Z,101782.47
2022-08-11T16:36:35.518Z,101789.53
2022-08-11T16:39:02.726Z,101783.34
2022-08-11T16:41:51.085Z,101786.69
2022-08-11T16:44:38.390Z,101789.38
2022-08-11T16:47:07.127Z,101785.84
2022-08-11T16:49:37.387Z,101785.50
2022-08-11T16:52:08.225Z,101785.50
2022-08-11T16:54:35.570Z,101786.34
2022-08-11T16:57:34.290Z,101780.13
2022-08-11T17:00:06.923Z,101791.72
2022-08-11T17:02:55.701Z,101790.88
2022-08-11T17:05:54.671Z,101787.53
2022-08-11T17:08:56.726Z,101785.84
2022-08-11T17:11:45.615Z,101775.09
2022-08-11T17:14:16.036Z,101787.84
2022-08-11T17:16:42.970Z,101782.47
2022-08-11T17:19:14.678Z,101784.19
2022-08-11T17:22:02.452Z,101776.25
2022-08-11T17:24:31.664Z,101786.16
2022-08-11T17:26:59.918Z,101784.47
2022-08-11T17:29:54.108Z,101782.63
2022-08-11T17:32:56.401Z,101785.31
2022-08-11T17:35:33.355Z,101785.50
2022-08-11T17:38:21.106Z,101780.28
2022-08-11T17:41:22.969Z,101787.34
2022-08-11T17:44:10.088Z,101787.50
2022-08-11T17:46:56.070Z,101782.31
2022-08-11T17:49:23.336Z,101778.75
2022-08-11T17:52:09.159Z,101776.94
2022-08-11T17:54:55.901Z,101773.25
2022-08-11T17:57:47.354Z,101777.78
2022-08-11T18:00:14.865Z,101783.16
2022-08-11T18:03:02.490Z,101783.16
2022-08-11T18:05:31.014Z,101776.94
2022-08-11T18:08:18.936Z,101784.81
2022-08-11T18:11:05.531Z,101788.50
2022-08-11T18:13:55.070Z,101776.06
2022-08-11T18:16:40.505Z,101790.50
2022-08-11T18:19:26.655Z,101785.97
2022-08-11T18:22:16.052Z,101794.19
2022-08-11T18:25:11.265Z,101787.81
2022-08-11T18:27:59.716Z,101789.66
2022-08-11T18:30:45.403Z,101800.56
2022-08-11T18:34:03.915Z,101801.56
2022-08-11T18:36:45.181Z,101806.09
2022-08-11T18:39:32.389Z,101801.56
2022-08-11T18:42:29.072Z,101798.91
2022-08-11T18:45:18.278Z,101798.22
2022-08-11T18:48:04.962Z,101800.19
2022-08-11T18:50:56.797Z,101800.53
2022-08-11T18:53:58.140Z,101804.06
2022-08-11T18:56:44.556Z,101805.06
2022-08-11T18:59:30.487Z,101802.56
2022-08-11T19:02:16.520Z,101807.22
2022-08-11T19:05:01.836Z,101797.19
2022-08-11T19:07:47.806Z,101810.44
2022-08-11T19:10:33.753Z,101797.19
2022-08-11T19:13:19.457Z,101811.44
2022-08-11T19:16:05.857Z,101809.59
2022-08-11T19:18:53.173Z,101807.94
2022-08-11T19:21:39.535Z,101810.63
2022-08-11T19:24:25.684Z,101809.78
2022-08-11T19:27:12.467Z,101806.22
2022-08-11T19:30:06.935Z,101812.56
2022-08-11T19:32:59.432Z,101815.28
2022-08-11T19:35:45.210Z,101825.72
2022-08-11T19:38:31.215Z,101823.03
2022-08-11T19:41:45.418Z,101825.72
2022-08-11T19:44:23.477Z,101837.47
2022-08-11T19:47:09.780Z,101835.63
2022-08-11T19:49:55.471Z,101829.41
2022-08-11T19:52:41.376Z,101837.47
2022-08-11T19:55:27.603Z,101834.78
2022-08-11T19:58:14.522Z,101835.63
2022-08-11T20:01:00.235Z,101837.47
2022-08-11T20:03:45.686Z,101834.78
2022-08-11T20:06:32.318Z,101835.63
2022-08-11T20:09:19.121Z,101830.38
2022-08-11T20:12:11.097Z,101826.03
2022-08-11T20:14:58.701Z,101828.88
2022-08-11T20:17:47.731Z,101840.78
2022-08-11T20:20:34.865Z,101842.75
2022-08-11T20:23:23.748Z,101841.09
2022-08-11T20:26:29.509Z,101841.41
2022-08-11T20:29:16.600Z,101832.81
2022-08-11T20:32:04.230Z,101842.06
2022-08-11T20:34:55.039Z,101845.75
2022-08-11T20:37:40.578Z,101840.38
2022-08-11T20:40:26.773Z,101849.09
2022-08-11T20:44:06.770Z,101841.72
2022-08-11T20:46:20.184Z,101848.47
2022-08-11T20:49:06.082Z,101839.41
2022-08-11T20:51:51.522Z,101842.75
2022-08-11T20:54:43.709Z,101847.09
2022-08-11T20:57:59.883Z,101838.94
2022-08-11T21:00:43.927Z,101846.66
2022-08-11T21:03:36.167Z,101843.81
2022-08-11T21:06:32.981Z,101840.16
2022-08-11T21:09:21.785Z,101838.31
2022-08-11T21:12:13.511Z,101837.13
2022-08-11T21:14:59.993Z,101843.50
2022-08-11T21:18:00.712Z,101835.28
2022-08-11T21:20:52.357Z,101840.50
2022-08-11T21:23:38.935Z,101842.50
2022-08-11T21:26:27.687Z,101842.75
2022-08-11T21:29:15.119Z,101841.81
2022-08-11T21:32:00.915Z,101845.19
2022-08-11T21:34:46.664Z,101852.25
2022-08-11T21:37:34.964Z,101849.25
2022-08-11T21:40:22.971Z,101845.19
2022-08-11T21:43:08.796Z,101843.50
2022-08-11T21:45:56.202Z,101845.19
2022-08-11T21:48:43.062Z,101846.88
2022-08-11T21:51:28.098Z,101839.09
2022-08-11T21:54:13.481Z,101841.81
2022-08-11T21:56:58.838Z,101837.13
2022-08-11T21:59:54.653Z,101838.13
2022-08-11T22:02:40.443Z,101840.81
2022-08-11T22:05:26.610Z,101835.44
2022-08-11T22:08:11.993Z,101838.13
2022-08-11T22:10:57.502Z,101840.81
2022-08-11T22:13:42.747Z,101842.50
2022-08-11T22:16:48.121Z,101840.81
2022-08-11T22:19:34.853Z,101840.66
2022-08-11T22:22:26.332Z,101835.44
2022-08-11T22:25:16.249Z,101834.63
2022-08-11T22:28:02.260Z,101834.44
2022-08-11T22:30:47.869Z,101831.94
2022-08-11T22:33:33.416Z,101827.41
2022-08-11T22:36:18.858Z,101837.13
2022-08-11T22:39:04.878Z,101830.09
2022-08-11T22:41:50.577Z,101825.72
2022-08-11T22:44:35.888Z,101832.75
2022-08-11T22:47:22.726Z,101830.09
2022-08-11T22:50:16.649Z,101825.56
2022-08-11T22:53:02.096Z,101829.25
2022-08-11T22:55:47.949Z,101825.72
2022-08-11T22:58:33.681Z,101824.03
2022-08-11T23:01:19.180Z,101825.72
2022-08-11T23:04:07.787Z,101829.06
2022-08-11T23:06:54.108Z,101827.56
2022-08-11T23:09:39.801Z,101821.34
2022-08-11T23:12:25.311Z,101820.34
2022-08-11T23:15:10.786Z,101821.34
2022-08-11T23:17:56.084Z,101818.66
2022-08-11T23:20:57.961Z,101817.81
2022-08-11T23:23:44.380Z,101819.66
2022-08-11T23:26:30.187Z,101818.81
2022-08-11T23:29:16.733Z,101825.00
2022-08-11T23:32:02.238Z,101823.34
2022-08-11T23:35:04.848Z,101809.91
2022-08-11T23:38:00.843Z,101823.34
2022-08-11T23:40:46.489Z,101819.81
2022-08-11T23:43:39.764Z,101818.81
2022-08-11T23:46:24.982Z,101814.59
2022-08-11T23:49:12.634Z,101817.97
2022-08-11T23:51:58.668Z,101828.03
2022-08-11T23:54:44.882Z,101818.13
2022-08-11T23:57:31.028Z,101815.63
